sensor_id;sensor_type;location;lat;lon;timestamp;P1;durP1;ratioP1;P2;durP2;ratioP2
7199;SDS011;3641;49.082;8.200;2022-11-15T00:01:18;24.60;;;13.88;;
7199;SDS011;3641;49.082;8.200;2022-11-15T00:03:44;22.10;;;14.48;;
7199;SDS011;3641;49.082;8.200;2022-11-15T00:06:11;22.13;;;15.27;;
7199;SDS011;3641;49.082;8.200;2022-11-15T00:08:38;23.65;;;15.15;;
7199;SDS011;3641;49.082;8.200;2022-11-15T00:11:04;25.67;;;16.00;;
7199;SDS011;3641;49.082;8.200;2022-11-15T00:13:31;25.75;;;15.60;;
7199;SDS011;3641;49.082;8.200;2022-11-15T00:16:00;26.42;;;15.60;;
7199;SDS011;3641;49.082;8.200;2022-11-15T00:18:27;24.88;;;15.85;;
7199;SDS011;3641;49.082;8.200;2022-11-15T00:20:54;24.63;;;15.15;;
7199;SDS011;3641;49.082;8.200;2022-11-15T00:23:21;27.27;;;16.15;;
7199;SDS011;3641;49.082;8.200;2022-11-15T00:25:54;29.38;;;15.70;;
7199;SDS011;3641;49.082;8.200;2022-11-15T00:28:21;27.77;;;16.15;;
7199;SDS011;3641;49.082;8.200;2022-11-15T00:30:48;25.27;;;16.45;;
7199;SDS011;3641;49.082;8.200;2022-11-15T00:33:16;29.08;;;15.77;;
7199;SDS011;3641;49.082;8.200;2022-11-15T00:35:42;33.10;;;17.25;;
7199;SDS011;3641;49.082;8.200;2022-11-15T00:38:09;34.03;;;19.38;;
7199;SDS011;3641;49.082;8.200;2022-11-15T00:40:35;34.00;;;17.95;;
7199;SDS011;3641;49.082;8.200;2022-11-15T00:43:02;30.20;;;17.95;;
7199;SDS011;3641;49.082;8.200;2022-11-15T00:45:28;28.33;;;16.85;;
7199;SDS011;3641;49.082;8.200;2022-11-15T00:47:55;32.92;;;16.55;;
7199;SDS011;3641;49.082;8.200;2022-11-15T00:50:23;28.75;;;17.17;;
7199;SDS011;3641;49.082;8.200;2022-11-15T00:52:49;32.35;;;18.15;;
7199;SDS011;3641;49.082;8.200;2022-11-15T00:55:16;29.20;;;17.02;;
7199;SDS011;3641;49.082;8.200;2022-11-15T00:57:44;31.98;;;17.33;;
7199;SDS011;3641;49.082;8.200;2022-11-15T01:00:11;34.53;;;18.02;;
7199;SDS011;3641;49.082;8.200;2022-11-15T01:02:38;35.40;;;18.92;;
7199;SDS011;3641;49.082;8.200;2022-11-15T01:05:05;37.38;;;19.33;;
7199;SDS011;3641;49.082;8.200;2022-11-15T01:07:33;45.97;;;25.55;;
7199;SDS011;3641;49.082;8.200;2022-11-15T01:10:00;49.45;;;27.63;;
7199;SDS011;3641;49.082;8.200;2022-11-15T01:12:26;48.70;;;26.70;;
7199;SDS011;3641;49.082;8.200;2022-11-15T01:14:53;41.50;;;25.50;;
7199;SDS011;3641;49.082;8.200;2022-11-15T01:17:19;41.22;;;24.80;;
7199;SDS011;3641;49.082;8.200;2022-11-15T01:19:46;37.20;;;20.95;;
7199;SDS011;3641;49.082;8.200;2022-11-15T01:22:13;32.92;;;19.45;;
7199;SDS011;3641;49.082;8.200;2022-11-15T01:24:41;32.38;;;17.60;;
7199;SDS011;3641;49.082;8.200;2022-11-15T01:27:07;26.45;;;16.00;;
7199;SDS011;3641;49.082;8.200;2022-11-15T01:29:34;26.35;;;16.02;;
7199;SDS011;3641;49.082;8.200;2022-11-15T01:32:01;27.08;;;15.93;;
7199;SDS011;3641;49.082;8.200;2022-11-15T01:34:27;24.77;;;16.00;;
7199;SDS011;3641;49.082;8.200;2022-11-15T01:36:54;21.88;;;14.40;;
7199;SDS011;3641;49.082;8.200;2022-11-15T01:39:20;19.10;;;13.13;;
7199;SDS011;3641;49.082;8.200;2022-11-15T01:41:48;23.52;;;13.80;;
7199;SDS011;3641;49.082;8.200;2022-11-15T01:47:12;20.52;;;13.40;;
7199;SDS011;3641;49.082;8.200;2022-11-15T01:49:44;19.73;;;12.55;;
7199;SDS011;3641;49.082;8.200;2022-11-15T01:52:17;19.77;;;12.55;;
7199;SDS011;3641;49.082;8.200;2022-11-15T01:54:46;23.15;;;13.50;;
7199;SDS011;3641;49.082;8.200;2022-11-15T01:57:15;20.63;;;13.32;;
7199;SDS011;3641;49.082;8.200;2022-11-15T01:59:43;20.15;;;12.60;;
7199;SDS011;3641;49.082;8.200;2022-11-15T02:02:11;18.67;;;12.48;;
7199;SDS011;3641;49.082;8.200;2022-11-15T02:04:40;18.63;;;12.85;;
7199;SDS011;3641;49.082;8.200;2022-11-15T02:07:08;22.30;;;13.32;;
7199;SDS011;3641;49.082;8.200;2022-11-15T02:09:37;18.17;;;12.65;;
7199;SDS011;3641;49.082;8.200;2022-11-15T02:12:04;20.23;;;12.65;;
7199;SDS011;3641;49.082;8.200;2022-11-15T02:14:34;18.05;;;12.00;;
7199;SDS011;3641;49.082;8.200;2022-11-15T02:17:06;19.42;;;12.27;;
7199;SDS011;3641;49.082;8.200;2022-11-15T02:22:57;19.77;;;13.15;;
7199;SDS011;3641;49.082;8.200;2022-11-15T02:25:41;18.85;;;12.68;;
7199;SDS011;3641;49.082;8.200;2022-11-15T02:28:32;23.88;;;13.02;;
7199;SDS011;3641;49.082;8.200;2022-11-15T02:31:13;18.58;;;12.30;;
7199;SDS011;3641;49.082;8.200;2022-11-15T02:33:47;19.25;;;12.35;;
7199;SDS011;3641;49.082;8.200;2022-11-15T02:36:23;18.33;;;12.00;;
7199;SDS011;3641;49.082;8.200;2022-11-15T02:39:01;21.10;;;12.15;;
7199;SDS011;3641;49.082;8.200;2022-11-15T02:41:35;20.17;;;12.73;;
7199;SDS011;3641;49.082;8.200;2022-11-15T02:44:12;19.63;;;12.88;;
7199;SDS011;3641;49.082;8.200;2022-11-15T02:46:44;20.38;;;12.02;;
7199;SDS011;3641;49.082;8.200;2022-11-15T02:49:32;19.48;;;12.95;;
7199;SDS011;3641;49.082;8.200;2022-11-15T02:52:00;20.38;;;13.75;;
7199;SDS011;3641;49.082;8.200;2022-11-15T02:54:29;21.70;;;13.60;;
7199;SDS011;3641;49.082;8.200;2022-11-15T02:56:58;23.83;;;12.73;;
7199;SDS011;3641;49.082;8.200;2022-11-15T03:02:46;20.45;;;12.65;;
7199;SDS011;3641;49.082;8.200;2022-11-15T03:05:30;21.17;;;12.75;;
7199;SDS011;3641;49.082;8.200;2022-11-15T03:08:02;21.88;;;12.88;;
7199;SDS011;3641;49.082;8.200;2022-11-15T03:10:36;18.48;;;12.50;;
7199;SDS011;3641;49.082;8.200;2022-11-15T03:13:14;23.02;;;13.02;;
7199;SDS011;3641;49.082;8.200;2022-11-15T03:15:49;22.27;;;13.57;;
7199;SDS011;3641;49.082;8.200;2022-11-15T03:18:21;21.17;;;12.65;;
7199;SDS011;3641;49.082;8.200;2022-11-15T03:20:52;23.17;;;13.57;;
7199;SDS011;3641;49.082;8.200;2022-11-15T03:23:21;19.65;;;12.63;;
7199;SDS011;3641;49.082;8.200;2022-11-15T03:25:48;20.33;;;12.85;;
7199;SDS011;3641;49.082;8.200;2022-11-15T03:28:19;18.58;;;12.93;;
7199;SDS011;3641;49.082;8.200;2022-11-15T03:30:49;22.55;;;13.38;;
7199;SDS011;3641;49.082;8.200;2022-11-15T03:33:21;23.95;;;13.68;;
7199;SDS011;3641;49.082;8.200;2022-11-15T03:35:48;24.00;;;14.55;;
7199;SDS011;3641;49.082;8.200;2022-11-15T03:38:17;22.73;;;14.43;;
7199;SDS011;3641;49.082;8.200;2022-11-15T03:40:49;24.15;;;15.25;;
7199;SDS011;3641;49.082;8.200;2022-11-15T03:43:23;22.83;;;13.63;;
7199;SDS011;3641;49.082;8.200;2022-11-15T03:45:58;23.30;;;14.07;;
7199;SDS011;3641;49.082;8.200;2022-11-15T03:48:29;24.35;;;14.35;;
7199;SDS011;3641;49.082;8.200;2022-11-15T03:51:00;21.42;;;14.13;;
7199;SDS011;3641;49.082;8.200;2022-11-15T03:53:28;23.42;;;14.18;;
7199;SDS011;3641;49.082;8.200;2022-11-15T03:55:56;23.08;;;12.98;;
7199;SDS011;3641;49.082;8.200;2022-11-15T03:58:23;21.90;;;13.57;;
7199;SDS011;3641;49.082;8.200;2022-11-15T04:00:49;21.20;;;13.30;;
7199;SDS011;3641;49.082;8.200;2022-11-15T04:03:16;18.80;;;13.10;;
7199;SDS011;3641;49.082;8.200;2022-11-15T04:05:44;20.83;;;13.18;;
7199;SDS011;3641;49.082;8.200;2022-11-15T04:08:10;20.52;;;13.60;;
7199;SDS011;3641;49.082;8.200;2022-11-15T04:10:37;21.02;;;13.50;;
7199;SDS011;3641;49.082;8.200;2022-11-15T04:13:03;18.77;;;12.63;;
7199;SDS011;3641;49.082;8.200;2022-11-15T04:15:30;21.35;;;12.93;;
7199;SDS011;3641;49.082;8.200;2022-11-15T04:17:56;20.58;;;12.25;;
7199;SDS011;3641;49.082;8.200;2022-11-15T04:20:25;21.23;;;13.48;;
7199;SDS011;3641;49.082;8.200;2022-11-15T04:23:12;19.20;;;11.50;;
7199;SDS011;3641;49.082;8.200;2022-11-15T04:25:58;22.20;;;13.60;;
7199;SDS011;3641;49.082;8.200;2022-11-15T04:28:26;20.42;;;12.85;;
7199;SDS011;3641;49.082;8.200;2022-11-15T04:30:53;17.85;;;12.10;;
7199;SDS011;3641;49.082;8.200;2022-11-15T04:33:20;21.50;;;13.10;;
7199;SDS011;3641;49.082;8.200;2022-11-15T04:35:47;21.45;;;13.20;;
7199;SDS011;3641;49.082;8.200;2022-11-15T04:38:29;19.63;;;12.63;;
7199;SDS011;3641;49.082;8.200;2022-11-15T04:40:56;19.02;;;12.70;;
7199;SDS011;3641;49.082;8.200;2022-11-15T04:43:23;19.17;;;12.95;;
7199;SDS011;3641;49.082;8.200;2022-11-15T04:45:49;21.27;;;12.13;;
7199;SDS011;3641;49.082;8.200;2022-11-15T04:48:16;21.20;;;13.63;;
7199;SDS011;3641;49.082;8.200;2022-11-15T04:50:42;22.98;;;14.13;;
7199;SDS011;3641;49.082;8.200;2022-11-15T04:53:09;20.08;;;12.43;;
7199;SDS011;3641;49.082;8.200;2022-11-15T04:55:37;19.15;;;12.70;;
7199;SDS011;3641;49.082;8.200;2022-11-15T04:58:03;17.90;;;12.45;;
7199;SDS011;3641;49.082;8.200;2022-11-15T05:00:29;18.67;;;13.30;;
7199;SDS011;3641;49.082;8.200;2022-11-15T05:02:56;18.13;;;12.68;;
7199;SDS011;3641;49.082;8.200;2022-11-15T05:05:41;23.45;;;13.18;;
7199;SDS011;3641;49.082;8.200;2022-11-15T05:08:07;21.35;;;12.95;;
7199;SDS011;3641;49.082;8.200;2022-11-15T05:10:34;19.52;;;12.60;;
7199;SDS011;3641;49.082;8.200;2022-11-15T05:13:02;19.35;;;12.10;;
7199;SDS011;3641;49.082;8.200;2022-11-15T05:15:28;21.95;;;13.30;;
7199;SDS011;3641;49.082;8.200;2022-11-15T05:17:57;18.13;;;11.40;;
7199;SDS011;3641;49.082;8.200;2022-11-15T05:20:25;18.02;;;11.80;;
7199;SDS011;3641;49.082;8.200;2022-11-15T05:22:52;18.33;;;13.02;;
7199;SDS011;3641;49.082;8.200;2022-11-15T05:25:18;17.88;;;11.93;;
7199;SDS011;3641;49.082;8.200;2022-11-15T05:27:45;19.70;;;11.90;;
7199;SDS011;3641;49.082;8.200;2022-11-15T05:30:13;19.42;;;12.25;;
7199;SDS011;3641;49.082;8.200;2022-11-15T05:32:40;18.50;;;12.45;;
7199;SDS011;3641;49.082;8.200;2022-11-15T05:35:07;21.25;;;12.63;;
7199;SDS011;3641;49.082;8.200;2022-11-15T05:37:38;20.10;;;12.52;;
7199;SDS011;3641;49.082;8.200;2022-11-15T05:40:05;21.80;;;12.70;;
7199;SDS011;3641;49.082;8.200;2022-11-15T05:42:32;18.38;;;11.85;;
7199;SDS011;3641;49.082;8.200;2022-11-15T05:44:58;18.55;;;12.20;;
7199;SDS011;3641;49.082;8.200;2022-11-15T05:47:29;19.92;;;12.82;;
7199;SDS011;3641;49.082;8.200;2022-11-15T05:49:56;22.40;;;13.98;;
7199;SDS011;3641;49.082;8.200;2022-11-15T05:52:24;19.40;;;13.52;;
7199;SDS011;3641;49.082;8.200;2022-11-15T05:54:54;22.90;;;14.48;;
7199;SDS011;3641;49.082;8.200;2022-11-15T05:57:22;22.63;;;14.13;;
7199;SDS011;3641;49.082;8.200;2022-11-15T05:59:50;20.58;;;14.02;;
7199;SDS011;3641;49.082;8.200;2022-11-15T06:02:17;22.25;;;14.63;;
7199;SDS011;3641;49.082;8.200;2022-11-15T06:04:45;26.08;;;15.27;;
7199;SDS011;3641;49.082;8.200;2022-11-15T06:07:11;26.23;;;15.88;;
7199;SDS011;3641;49.082;8.200;2022-11-15T06:09:38;23.75;;;16.45;;
7199;SDS011;3641;49.082;8.200;2022-11-15T06:12:05;26.83;;;16.65;;
7199;SDS011;3641;49.082;8.200;2022-11-15T06:14:32;23.73;;;16.58;;
7199;SDS011;3641;49.082;8.200;2022-11-15T06:16:59;28.52;;;17.60;;
7199;SDS011;3641;49.082;8.200;2022-11-15T06:19:25;24.98;;;17.02;;
7199;SDS011;3641;49.082;8.200;2022-11-15T06:21:53;31.00;;;18.80;;
7199;SDS011;3641;49.082;8.200;2022-11-15T06:24:20;33.88;;;18.52;;
7199;SDS011;3641;49.082;8.200;2022-11-15T06:26:47;29.02;;;17.85;;
7199;SDS011;3641;49.082;8.200;2022-11-15T06:29:13;28.23;;;18.42;;
7199;SDS011;3641;49.082;8.200;2022-11-15T06:31:40;30.80;;;18.02;;
7199;SDS011;3641;49.082;8.200;2022-11-15T06:34:08;29.83;;;17.70;;
7199;SDS011;3641;49.082;8.200;2022-11-15T06:36:35;29.63;;;18.50;;
7199;SDS011;3641;49.082;8.200;2022-11-15T06:39:05;29.80;;;18.48;;
7199;SDS011;3641;49.082;8.200;2022-11-15T06:41:33;27.02;;;17.85;;
7199;SDS011;3641;49.082;8.200;2022-11-15T06:43:59;26.73;;;16.60;;
7199;SDS011;3641;49.082;8.200;2022-11-15T06:46:26;29.58;;;17.08;;
7199;SDS011;3641;49.082;8.200;2022-11-15T06:48:53;26.13;;;16.40;;
7199;SDS011;3641;49.082;8.200;2022-11-15T06:51:19;25.48;;;16.95;;
7199;SDS011;3641;49.082;8.200;2022-11-15T06:53:46;26.25;;;16.35;;
7199;SDS011;3641;49.082;8.200;2022-11-15T06:56:14;26.05;;;16.40;;
7199;SDS011;3641;49.082;8.200;2022-11-15T06:58:40;26.58;;;15.23;;
7199;SDS011;3641;49.082;8.200;2022-11-15T07:01:07;22.50;;;14.50;;
7199;SDS011;3641;49.082;8.200;2022-11-15T07:03:35;24.50;;;15.23;;
7199;SDS011;3641;49.082;8.200;2022-11-15T07:06:03;19.42;;;13.88;;
7199;SDS011;3641;49.082;8.200;2022-11-15T07:08:30;24.17;;;14.73;;
7199;SDS011;3641;49.082;8.200;2022-11-15T07:10:57;23.70;;;18.45;;
7199;SDS011;3641;49.082;8.200;2022-11-15T07:13:26;29.27;;;19.73;;
7199;SDS011;3641;49.082;8.200;2022-11-15T07:15:52;26.52;;;19.35;;
7199;SDS011;3641;49.082;8.200;2022-11-15T07:18:19;25.02;;;20.20;;
7199;SDS011;3641;49.082;8.200;2022-11-15T07:20:46;25.95;;;19.67;;
7199;SDS011;3641;49.082;8.200;2022-11-15T07:23:13;27.05;;;22.27;;
7199;SDS011;3641;49.082;8.200;2022-11-15T07:25:39;29.88;;;24.67;;
7199;SDS011;3641;49.082;8.200;2022-11-15T07:28:06;26.75;;;22.38;;
7199;SDS011;3641;49.082;8.200;2022-11-15T07:30:33;28.15;;;21.40;;
7199;SDS011;3641;49.082;8.200;2022-11-15T07:33:00;26.38;;;20.35;;
7199;SDS011;3641;49.082;8.200;2022-11-15T07:35:27;26.30;;;18.00;;
7199;SDS011;3641;49.082;8.200;2022-11-15T07:37:55;22.52;;;18.23;;
7199;SDS011;3641;49.082;8.200;2022-11-15T07:40:22;23.25;;;18.67;;
7199;SDS011;3641;49.082;8.200;2022-11-15T07:42:49;24.20;;;18.13;;
7199;SDS011;3641;49.082;8.200;2022-11-15T07:45:18;20.85;;;16.48;;
7199;SDS011;3641;49.082;8.200;2022-11-15T07:47:46;23.10;;;15.77;;
7199;SDS011;3641;49.082;8.200;2022-11-15T07:50:13;23.77;;;14.55;;
7199;SDS011;3641;49.082;8.200;2022-11-15T07:52:40;21.58;;;13.00;;
7199;SDS011;3641;49.082;8.200;2022-11-15T07:55:07;23.88;;;14.02;;
7199;SDS011;3641;49.082;8.200;2022-11-15T07:57:33;22.17;;;13.18;;
7199;SDS011;3641;49.082;8.200;2022-11-15T08:00:00;21.95;;;12.82;;
7199;SDS011;3641;49.082;8.200;2022-11-15T08:02:27;21.83;;;13.60;;
7199;SDS011;3641;49.082;8.200;2022-11-15T08:04:54;19.13;;;12.00;;
7199;SDS011;3641;49.082;8.200;2022-11-15T08:07:21;20.10;;;11.63;;
7199;SDS011;3641;49.082;8.200;2022-11-15T08:09:47;20.00;;;12.63;;
7199;SDS011;3641;49.082;8.200;2022-11-15T08:12:14;17.02;;;11.50;;
7199;SDS011;3641;49.082;8.200;2022-11-15T08:14:40;17.35;;;11.57;;
7199;SDS011;3641;49.082;8.200;2022-11-15T08:17:07;20.83;;;11.32;;
7199;SDS011;3641;49.082;8.200;2022-11-15T08:19:34;18.33;;;11.38;;
7199;SDS011;3641;49.082;8.200;2022-11-15T08:22:02;20.25;;;11.20;;
7199;SDS011;3641;49.082;8.200;2022-11-15T08:24:28;17.10;;;10.50;;
7199;SDS011;3641;49.082;8.200;2022-11-15T08:26:55;14.07;;;10.13;;
7199;SDS011;3641;49.082;8.200;2022-11-15T08:29:21;16.30;;;10.93;;
7199;SDS011;3641;49.082;8.200;2022-11-15T08:31:48;15.75;;;10.65;;
7199;SDS011;3641;49.082;8.200;2022-11-15T08:34:14;19.08;;;10.77;;
7199;SDS011;3641;49.082;8.200;2022-11-15T08:36:41;21.17;;;11.48;;
7199;SDS011;3641;49.082;8.200;2022-11-15T08:39:11;15.77;;;10.80;;
7199;SDS011;3641;49.082;8.200;2022-11-15T08:41:37;15.02;;;10.57;;
7199;SDS011;3641;49.082;8.200;2022-11-15T08:44:04;17.92;;;10.95;;
7199;SDS011;3641;49.082;8.200;2022-11-15T08:46:31;19.42;;;11.35;;
7199;SDS011;3641;49.082;8.200;2022-11-15T08:48:57;18.58;;;12.20;;
7199;SDS011;3641;49.082;8.200;2022-11-15T08:51:24;20.42;;;11.60;;
7199;SDS011;3641;49.082;8.200;2022-11-15T08:53:50;17.27;;;11.35;;
7199;SDS011;3641;49.082;8.200;2022-11-15T08:56:18;21.42;;;13.02;;
7199;SDS011;3641;49.082;8.200;2022-11-15T08:58:45;18.83;;;12.43;;
7199;SDS011;3641;49.082;8.200;2022-11-15T09:01:15;20.50;;;11.98;;
7199;SDS011;3641;49.082;8.200;2022-11-15T09:03:43;19.88;;;12.02;;
7199;SDS011;3641;49.082;8.200;2022-11-15T09:06:09;18.88;;;12.70;;
7199;SDS011;3641;49.082;8.200;2022-11-15T09:08:36;19.65;;;12.13;;
7199;SDS011;3641;49.082;8.200;2022-11-15T09:11:03;18.58;;;11.68;;
7199;SDS011;3641;49.082;8.200;2022-11-15T09:13:31;19.33;;;11.63;;
7199;SDS011;3641;49.082;8.200;2022-11-15T09:15:58;19.75;;;12.63;;
7199;SDS011;3641;49.082;8.200;2022-11-15T09:18:25;19.35;;;11.75;;
7199;SDS011;3641;49.082;8.200;2022-11-15T09:20:54;17.58;;;11.75;;
7199;SDS011;3641;49.082;8.200;2022-11-15T09:23:22;19.52;;;12.10;;
7199;SDS011;3641;49.082;8.200;2022-11-15T09:25:49;17.88;;;11.52;;
7199;SDS011;3641;49.082;8.200;2022-11-15T09:28:15;20.55;;;11.80;;
7199;SDS011;3641;49.082;8.200;2022-11-15T09:30:43;19.13;;;12.15;;
7199;SDS011;3641;49.082;8.200;2022-11-15T09:33:10;19.60;;;12.98;;
7199;SDS011;3641;49.082;8.200;2022-11-15T09:35:38;21.02;;;13.07;;
7199;SDS011;3641;49.082;8.200;2022-11-15T09:38:05;18.27;;;11.80;;
7199;SDS011;3641;49.082;8.200;2022-11-15T09:40:32;20.27;;;12.25;;
7199;SDS011;3641;49.082;8.200;2022-11-15T09:43:05;28.35;;;19.75;;
7199;SDS011;3641;49.082;8.200;2022-11-15T09:45:54;30.50;;;19.10;;
7199;SDS011;3641;49.082;8.200;2022-11-15T09:48:34;27.55;;;17.70;;
7199;SDS011;3641;49.082;8.200;2022-11-15T09:51:12;26.92;;;17.67;;
7199;SDS011;3641;49.082;8.200;2022-11-15T09:53:47;28.08;;;17.17;;
7199;SDS011;3641;49.082;8.200;2022-11-15T09:56:18;30.02;;;18.15;;
7199;SDS011;3641;49.082;8.200;2022-11-15T09:58:48;32.30;;;19.13;;
7199;SDS011;3641;49.082;8.200;2022-11-15T10:01:26;30.30;;;18.52;;
7199;SDS011;3641;49.082;8.200;2022-11-15T10:04:02;31.15;;;19.70;;
7199;SDS011;3641;49.082;8.200;2022-11-15T10:06:29;30.05;;;18.33;;
7199;SDS011;3641;49.082;8.200;2022-11-15T10:09:00;28.63;;;17.30;;
7199;SDS011;3641;49.082;8.200;2022-11-15T10:11:33;27.05;;;16.05;;
7199;SDS011;3641;49.082;8.200;2022-11-15T10:14:02;24.45;;;15.43;;
7199;SDS011;3641;49.082;8.200;2022-11-15T10:16:51;19.88;;;13.70;;
7199;SDS011;3641;49.082;8.200;2022-11-15T10:19:32;23.42;;;13.40;;
7199;SDS011;3641;49.082;8.200;2022-11-15T10:22:08;18.80;;;12.68;;
7199;SDS011;3641;49.082;8.200;2022-11-15T10:24:44;20.55;;;12.15;;
7199;SDS011;3641;49.082;8.200;2022-11-15T10:27:13;19.55;;;12.23;;
7199;SDS011;3641;49.082;8.200;2022-11-15T10:29:44;18.73;;;11.73;;
7199;SDS011;3641;49.082;8.200;2022-11-15T10:32:16;18.77;;;11.52;;
7199;SDS011;3641;49.082;8.200;2022-11-15T10:34:47;19.58;;;11.82;;
7199;SDS011;3641;49.082;8.200;2022-11-15T10:37:14;18.40;;;11.27;;
7199;SDS011;3641;49.082;8.200;2022-11-15T10:40:02;14.88;;;9.70;;
7199;SDS011;3641;49.082;8.200;2022-11-15T10:42:29;17.45;;;9.90;;
7199;SDS011;3641;49.082;8.200;2022-11-15T10:44:56;14.73;;;10.10;;
7199;SDS011;3641;49.082;8.200;2022-11-15T10:47:28;14.85;;;10.27;;
7199;SDS011;3641;49.082;8.200;2022-11-15T10:50:00;16.17;;;9.65;;
7199;SDS011;3641;49.082;8.200;2022-11-15T10:52:29;17.05;;;9.73;;
7199;SDS011;3641;49.082;8.200;2022-11-15T10:54:59;17.38;;;9.43;;
7199;SDS011;3641;49.082;8.200;2022-11-15T10:57:30;14.60;;;9.82;;
7199;SDS011;3641;49.082;8.200;2022-11-15T10:59:59;15.32;;;10.23;;
7199;SDS011;3641;49.082;8.200;2022-11-15T11:02:29;12.77;;;8.82;;
7199;SDS011;3641;49.082;8.200;2022-11-15T11:04:58;14.02;;;8.32;;
7199;SDS011;3641;49.082;8.200;2022-11-15T11:07:26;12.90;;;8.75;;
7199;SDS011;3641;49.082;8.200;2022-11-15T11:09:58;14.85;;;9.20;;
7199;SDS011;3641;49.082;8.200;2022-11-15T11:12:30;12.65;;;8.20;;
7199;SDS011;3641;49.082;8.200;2022-11-15T11:14:58;12.77;;;8.10;;
7199;SDS011;3641;49.082;8.200;2022-11-15T11:17:32;12.23;;;7.38;;
7199;SDS011;3641;49.082;8.200;2022-11-15T11:20:10;12.95;;;7.55;;
7199;SDS011;3641;49.082;8.200;2022-11-15T11:22:47;11.07;;;7.28;;
7199;SDS011;3641;49.082;8.200;2022-11-15T11:25:27;12.65;;;7.30;;
7199;SDS011;3641;49.082;8.200;2022-11-15T11:28:02;10.50;;;6.80;;
7199;SDS011;3641;49.082;8.200;2022-11-15T11:30:43;14.27;;;7.55;;
7199;SDS011;3641;49.082;8.200;2022-11-15T11:33:29;10.82;;;6.70;;
7199;SDS011;3641;49.082;8.200;2022-11-15T11:36:01;13.93;;;6.70;;
7199;SDS011;3641;49.082;8.200;2022-11-15T11:38:39;14.43;;;7.10;;
7199;SDS011;3641;49.082;8.200;2022-11-15T11:41:18;11.05;;;6.15;;
7199;SDS011;3641;49.082;8.200;2022-11-15T11:43:58;11.45;;;6.47;;
7199;SDS011;3641;49.082;8.200;2022-11-15T11:46:43;9.07;;;5.90;;
7199;SDS011;3641;49.082;8.200;2022-11-15T11:49:17;11.80;;;5.60;;
7199;SDS011;3641;49.082;8.200;2022-11-15T11:51:49;9.82;;;5.18;;
7199;SDS011;3641;49.082;8.200;2022-11-15T11:54:22;9.55;;;4.93;;
7199;SDS011;3641;49.082;8.200;2022-11-15T11:56:51;7.85;;;5.20;;
7199;SDS011;3641;49.082;8.200;2022-11-15T11:59:25;9.18;;;5.43;;
7199;SDS011;3641;49.082;8.200;2022-11-15T12:02:00;9.88;;;4.88;;
7199;SDS011;3641;49.082;8.200;2022-11-15T12:04:39;8.98;;;5.20;;
7199;SDS011;3641;49.082;8.200;2022-11-15T12:07:11;7.53;;;4.70;;
7199;SDS011;3641;49.082;8.200;2022-11-15T12:09:43;10.50;;;5.03;;
7199;SDS011;3641;49.082;8.200;2022-11-15T12:12:18;9.80;;;5.30;;
7199;SDS011;3641;49.082;8.200;2022-11-15T12:14:51;8.60;;;4.97;;
7199;SDS011;3641;49.082;8.200;2022-11-15T12:17:22;8.75;;;5.25;;
7199;SDS011;3641;49.082;8.200;2022-11-15T12:19:52;9.13;;;5.28;;
7199;SDS011;3641;49.082;8.200;2022-11-15T12:22:24;8.93;;;5.47;;
7199;SDS011;3641;49.082;8.200;2022-11-15T12:25:00;13.52;;;5.88;;
7199;SDS011;3641;49.082;8.200;2022-11-15T12:27:32;9.20;;;5.47;;
7199;SDS011;3641;49.082;8.200;2022-11-15T12:30:09;20.05;;;6.40;;
7199;SDS011;3641;49.082;8.200;2022-11-15T12:32:49;16.75;;;6.57;;
7199;SDS011;3641;49.082;8.200;2022-11-15T12:35:23;17.85;;;6.53;;
7199;SDS011;3641;49.082;8.200;2022-11-15T12:37:52;10.02;;;5.32;;
7199;SDS011;3641;49.082;8.200;2022-11-15T12:40:26;9.68;;;5.20;;
7199;SDS011;3641;49.082;8.200;2022-11-15T12:42:59;10.32;;;5.80;;
7199;SDS011;3641;49.082;8.200;2022-11-15T12:45:41;8.38;;;5.40;;
7199;SDS011;3641;49.082;8.200;2022-11-15T12:52:02;9.57;;;5.00;;
7199;SDS011;3641;49.082;8.200;2022-11-15T12:57:30;7.85;;;4.65;;
7199;SDS011;3641;49.082;8.200;2022-11-15T13:00:04;7.85;;;4.78;;
7199;SDS011;3641;49.082;8.200;2022-11-15T13:02:46;8.48;;;4.75;;
7199;SDS011;3641;49.082;8.200;2022-11-15T13:05:49;7.32;;;4.70;;
7199;SDS011;3641;49.082;8.200;2022-11-15T13:08:38;7.68;;;4.07;;
7199;SDS011;3641;49.082;8.200;2022-11-15T13:17:27;9.82;;;4.70;;
7199;SDS011;3641;49.082;8.200;2022-11-15T13:19:59;7.82;;;4.20;;
7199;SDS011;3641;49.082;8.200;2022-11-15T13:22:39;6.38;;;3.88;;
7199;SDS011;3641;49.082;8.200;2022-11-15T13:28:39;7.90;;;3.85;;
7199;SDS011;3641;49.082;8.200;2022-11-15T13:31:26;9.40;;;3.80;;
7199;SDS011;3641;49.082;8.200;2022-11-15T13:33:56;6.40;;;3.88;;
7199;SDS011;3641;49.082;8.200;2022-11-15T13:36:26;10.02;;;4.40;;
7199;SDS011;3641;49.082;8.200;2022-11-15T13:38:56;9.93;;;4.20;;
7199;SDS011;3641;49.082;8.200;2022-11-15T13:41:25;8.75;;;4.22;;
7199;SDS011;3641;49.082;8.200;2022-11-15T13:43:53;9.00;;;4.43;;
7199;SDS011;3641;49.082;8.200;2022-11-15T13:46:21;6.88;;;4.45;;
7199;SDS011;3641;49.082;8.200;2022-11-15T13:48:51;8.65;;;4.15;;
7199;SDS011;3641;49.082;8.200;2022-11-15T13:51:22;10.43;;;4.25;;
7199;SDS011;3641;49.082;8.200;2022-11-15T13:53:58;6.40;;;3.90;;
7199;SDS011;3641;49.082;8.200;2022-11-15T13:56:27;8.05;;;3.92;;
7199;SDS011;3641;49.082;8.200;2022-11-15T13:58:58;11.27;;;4.45;;
7199;SDS011;3641;49.082;8.200;2022-11-15T14:01:26;8.18;;;4.93;;
7199;SDS011;3641;49.082;8.200;2022-11-15T14:03:59;7.80;;;4.95;;
7199;SDS011;3641;49.082;8.200;2022-11-15T14:06:28;7.05;;;4.70;;
7199;SDS011;3641;49.082;8.200;2022-11-15T14:09:02;10.75;;;5.07;;
7199;SDS011;3641;49.082;8.200;2022-11-15T14:11:50;9.38;;;5.18;;
7199;SDS011;3641;49.082;8.200;2022-11-15T14:14:19;10.23;;;5.28;;
7199;SDS011;3641;49.082;8.200;2022-11-15T14:16:47;9.48;;;5.68;;
7199;SDS011;3641;49.082;8.200;2022-11-15T14:22:10;10.57;;;5.50;;
7199;SDS011;3641;49.082;8.200;2022-11-15T14:24:40;9.07;;;5.10;;
7199;SDS011;3641;49.082;8.200;2022-11-15T14:27:20;10.38;;;5.88;;
7199;SDS011;3641;49.082;8.200;2022-11-15T14:29:49;9.90;;;5.85;;
7199;SDS011;3641;49.082;8.200;2022-11-15T14:32:17;10.10;;;6.03;;
7199;SDS011;3641;49.082;8.200;2022-11-15T14:34:46;11.95;;;6.60;;
7199;SDS011;3641;49.082;8.200;2022-11-15T14:37:18;13.90;;;6.85;;
7199;SDS011;3641;49.082;8.200;2022-11-15T14:39:47;11.60;;;6.97;;
7199;SDS011;3641;49.082;8.200;2022-11-15T14:42:15;9.77;;;5.90;;
7199;SDS011;3641;49.082;8.200;2022-11-15T14:44:41;10.07;;;6.80;;
7199;SDS011;3641;49.082;8.200;2022-11-15T14:47:08;11.52;;;6.85;;
7199;SDS011;3641;49.082;8.200;2022-11-15T14:49:34;12.60;;;6.72;;
7199;SDS011;3641;49.082;8.200;2022-11-15T14:52:01;11.65;;;6.97;;
7199;SDS011;3641;49.082;8.200;2022-11-15T14:54:27;12.50;;;5.88;;
7199;SDS011;3641;49.082;8.200;2022-11-15T14:56:55;10.85;;;6.38;;
7199;SDS011;3641;49.082;8.200;2022-11-15T14:59:21;12.65;;;6.70;;
7199;SDS011;3641;49.082;8.200;2022-11-15T15:01:48;10.82;;;6.28;;
7199;SDS011;3641;49.082;8.200;2022-11-15T15:04:14;10.45;;;6.20;;
7199;SDS011;3641;49.082;8.200;2022-11-15T15:06:40;10.18;;;6.18;;
7199;SDS011;3641;49.082;8.200;2022-11-15T15:09:07;12.05;;;6.40;;
7199;SDS011;3641;49.082;8.200;2022-11-15T15:11:33;12.52;;;6.32;;
7199;SDS011;3641;49.082;8.200;2022-11-15T15:14:01;13.68;;;7.13;;
7199;SDS011;3641;49.082;8.200;2022-11-15T15:16:28;12.45;;;6.82;;
7199;SDS011;3641;49.082;8.200;2022-11-15T15:18:54;15.98;;;7.75;;
7199;SDS011;3641;49.082;8.200;2022-11-15T15:21:22;13.05;;;8.45;;
7199;SDS011;3641;49.082;8.200;2022-11-15T15:23:50;16.77;;;7.70;;
7199;SDS011;3641;49.082;8.200;2022-11-15T15:26:16;13.00;;;7.85;;
7199;SDS011;3641;49.082;8.200;2022-11-15T15:28:43;13.30;;;6.40;;
7199;SDS011;3641;49.082;8.200;2022-11-15T15:31:11;11.65;;;6.68;;
7199;SDS011;3641;49.082;8.200;2022-11-15T15:33:37;16.58;;;6.38;;
7199;SDS011;3641;49.082;8.200;2022-11-15T15:36:04;13.10;;;7.07;;
7199;SDS011;3641;49.082;8.200;2022-11-15T15:38:31;11.15;;;6.43;;